createdAt,value
2019-04-07T00:00:11.825Z,42.90
2019-04-07T00:02:42.819Z,43.53
2019-04-07T00:05:14.820Z,43.90
2019-04-07T00:07:45.975Z,45.73
2019-04-07T00:10:17.010Z,45.63
2019-04-07T00:12:49.863Z,44.63
2019-04-07T00:15:20.923Z,44.77
2019-04-07T00:17:51.850Z,41.90
2019-04-07T00:20:23.946Z,43.43
2019-04-07T00:22:57.348Z,41.70
2019-04-07T00:25:28.762Z,40.60
2019-04-07T00:27:59.774Z,39.30
2019-04-07T00:30:30.835Z,39.10
2019-04-07T00:33:01.988Z,41.77
2019-04-07T00:35:33.620Z,41.17
2019-04-07T00:38:04.870Z,43.33
2019-04-07T00:40:37.084Z,39.23
2019-04-07T00:43:08.772Z,40.27
2019-04-07T00:45:40.517Z,40.13
2019-04-07T00:48:12.287Z,39.67
2019-04-07T00:50:43.704Z,38.27
2019-04-07T00:53:14.721Z,38.87
2019-04-07T00:55:45.721Z,40.23
2019-04-07T00:58:16.789Z,39.77
2019-04-07T01:00:50.408Z,40.60
2019-04-07T01:03:21.462Z,42.67
2019-04-07T01:05:52.544Z,42.40
2019-04-07T01:08:23.503Z,41.90
2019-04-07T01:10:54.562Z,43.07
2019-04-07T01:13:26.223Z,41.20
2019-04-07T01:15:57.421Z,41.43
2019-04-07T01:18:31.752Z,41.03
2019-04-07T01:21:03.862Z,41.43
2019-04-07T01:23:34.878Z,39.97
2019-04-07T01:26:06.410Z,34.97
2019-04-07T01:28:37.569Z,35.90
2019-04-07T01:31:08.799Z,35.87
2019-04-07T01:33:40.092Z,35.00
2019-04-07T01:36:11.293Z,35.73
2019-04-07T01:38:42.270Z,36.17
2019-04-07T01:41:15.273Z,36.60
2019-04-07T01:44:14.688Z,37.77
2019-04-07T01:46:56.830Z,38.10
2019-04-07T01:49:35.960Z,39.83
2019-04-07T01:52:08.727Z,37.77
2019-04-07T01:54:47.262Z,39.03
2019-04-07T01:57:20.178Z,38.60
2019-04-07T01:59:58.509Z,38.80
2019-04-07T02:02:45.509Z,38.37
2019-04-07T02:05:21.116Z,39.03
2019-04-07T02:07:56.780Z,40.63
2019-04-07T02:10:29.371Z,41.07
2019-04-07T02:13:02.154Z,41.87
2019-04-07T02:15:41.457Z,41.63
2019-04-07T02:18:14.801Z,42.60
2019-04-07T02:21:05.415Z,44.77
2019-04-07T02:23:53.625Z,42.37
2019-04-07T02:26:29.014Z,43.77
2019-04-07T02:29:18.071Z,44.17
2019-04-07T02:31:54.235Z,42.27
2019-04-07T02:34:33.854Z,40.60
2019-04-07T02:37:12.781Z,40.93
2019-04-07T02:39:48.822Z,40.97
2019-04-07T02:42:21.487Z,42.60
2019-04-07T02:45:10.996Z,43.43
2019-04-07T02:47:59.660Z,47.30
2019-04-07T02:50:35.243Z,46.83
2019-04-07T02:53:24.577Z,47.03
2019-04-07T02:56:13.508Z,47.93
2019-04-07T02:58:49.767Z,45.10
2019-04-07T03:01:26.349Z,45.67
2019-04-07T03:04:00.217Z,45.97
2019-04-07T03:06:52.534Z,45.73
2019-04-07T03:09:40.459Z,42.87
2019-04-07T03:12:18.971Z,41.10
2019-04-07T03:15:00.730Z,42.43
2019-04-07T03:17:49.826Z,41.70
2019-04-07T03:20:39.232Z,43.37
2019-04-07T03:23:27.265Z,42.53
2019-04-07T03:26:16.346Z,43.83
2019-04-07T03:28:52.609Z,44.87
2019-04-07T03:31:27.380Z,45.80
2019-04-07T03:34:09.756Z,43.33
2019-04-07T03:37:12.691Z,43.00
2019-04-07T03:39:22.294Z,43.27
2019-04-07T03:41:59.035Z,45.83
2019-04-07T03:44:34.790Z,44.73
2019-04-07T03:47:10.730Z,47.03
2019-04-07T03:49:49.669Z,47.43
2019-04-07T03:52:25.361Z,46.90
2019-04-07T03:54:58.880Z,46.27
2019-04-07T03:57:32.438Z,43.77
2019-04-07T04:00:26.155Z,41.70
2019-04-07T04:02:59.237Z,40.73
2019-04-07T04:05:39.444Z,40.90
2019-04-07T04:08:18.370Z,41.07
2019-04-07T04:10:53.890Z,39.60
2019-04-07T04:13:30.579Z,36.73
2019-04-07T04:16:03.438Z,36.67
2019-04-07T04:18:35.235Z,37.00
2019-04-07T04:21:07.023Z,36.70
2019-04-07T04:23:41.545Z,36.30
2019-04-07T04:26:10.951Z,38.63
2019-04-07T04:28:42.959Z,37.43
2019-04-07T04:31:15.483Z,37.53
2019-04-07T04:33:46.622Z,42.33
2019-04-07T04:36:17.839Z,43.67
2019-04-07T04:38:48.847Z,44.53
2019-04-07T04:41:20.913Z,43.77
2019-04-07T04:43:52.069Z,44.20
2019-04-07T04:46:26.627Z,45.40
2019-04-07T04:48:58.752Z,44.00
2019-04-07T04:51:36.981Z,43.80
2019-04-07T04:54:07.095Z,41.80
2019-04-07T04:56:39.516Z,38.57
2019-04-07T04:59:11.392Z,40.90
2019-04-07T05:01:45.130Z,42.83
2019-04-07T05:04:16.202Z,45.67
2019-04-07T05:06:49.094Z,42.77
2019-04-07T05:09:21.051Z,40.03
2019-04-07T05:11:52.825Z,40.37
2019-04-07T05:14:24.232Z,38.30
2019-04-07T05:16:56.477Z,40.03
2019-04-07T05:19:28.238Z,38.53
2019-04-07T05:21:59.864Z,39.20
2019-04-07T05:24:31.276Z,39.90
2019-04-07T05:27:03.113Z,40.23
2019-04-07T05:29:34.543Z,37.63
2019-04-07T05:32:05.770Z,37.47
2019-04-07T05:34:36.811Z,37.03
2019-04-07T05:37:08.716Z,37.87
2019-04-07T05:39:40.384Z,33.47
2019-04-07T05:42:12.429Z,33.27
2019-04-07T05:44:43.548Z,34.33
2019-04-07T05:47:15.593Z,35.40
2019-04-07T05:49:46.655Z,35.87
2019-04-07T05:52:18.101Z,34.90
2019-04-07T05:54:50.258Z,34.23
2019-04-07T05:57:22.250Z,36.15
2019-04-07T05:59:53.740Z,36.90
2019-04-07T06:02:27.327Z,38.20
2019-04-07T06:05:00.370Z,37.20
2019-04-07T06:07:51.477Z,36.93
2019-04-07T06:10:37.069Z,34.58
2019-04-07T06:13:12.940Z,35.65
2019-04-07T06:15:43.227Z,36.13
2019-04-07T06:18:15.323Z,35.30
2019-04-07T06:20:46.694Z,34.30
2019-04-07T06:23:22.102Z,35.17
2019-04-07T06:25:53.883Z,33.95
2019-04-07T06:28:26.614Z,33.75
2019-04-07T06:31:00.246Z,32.28
2019-04-07T06:33:30.775Z,33.08
2019-04-07T06:36:01.938Z,32.45
2019-04-07T06:38:34.872Z,30.97
2019-04-07T06:41:06.169Z,30.10
2019-04-07T06:43:39.829Z,30.17
2019-04-07T06:46:14.844Z,29.87
2019-04-07T06:49:08.912Z,30.57
2019-04-07T06:51:43.679Z,29.48
2019-04-07T06:54:33.001Z,29.48
2019-04-07T06:57:09.429Z,29.27
2019-04-07T06:59:45.700Z,27.73
2019-04-07T07:02:16.505Z,27.22
2019-04-07T07:04:57.177Z,25.20
2019-04-07T07:07:47.777Z,26.82
2019-04-07T07:10:26.867Z,29.50
2019-04-07T07:12:53.549Z,25.80
2019-04-07T07:15:26.779Z,24.12
2019-04-07T07:18:02.550Z,24.05
2019-04-07T07:20:47.371Z,26.70
2019-04-07T07:23:20.038Z,27.07
2019-04-07T07:25:51.901Z,25.68
2019-04-07T07:28:23.689Z,25.48
2019-04-07T07:30:55.626Z,25.50
2019-04-07T07:33:26.984Z,25.92
2019-04-07T07:35:58.320Z,24.25
2019-04-07T07:38:32.145Z,23.38
2019-04-07T07:41:03.619Z,22.48
2019-04-07T07:43:34.974Z,23.25
2019-04-07T07:46:06.809Z,23.07
2019-04-07T07:48:37.925Z,21.07
2019-04-07T07:51:12.866Z,19.40
2019-04-07T07:53:42.698Z,20.08
2019-04-07T07:56:14.383Z,20.90
2019-04-07T07:58:46.084Z,21.02
2019-04-07T08:01:17.915Z,21.95
2019-04-07T08:03:51.715Z,23.00
2019-04-07T08:06:22.533Z,22.30
2019-04-07T08:08:53.729Z,23.75
2019-04-07T08:11:25.676Z,22.42
2019-04-07T08:13:58.130Z,22.07
2019-04-07T08:16:31.076Z,26.68
2019-04-07T08:19:02.802Z,22.10
2019-04-07T08:21:34.811Z,25.43
2019-04-07T08:24:05.887Z,26.30
2019-04-07T08:26:36.897Z,25.92
2019-04-07T08:29:08.758Z,26.77
2019-04-07T08:31:39.913Z,28.92
2019-04-07T08:34:11.033Z,25.35
2019-04-07T08:36:44.479Z,25.08
2019-04-07T08:39:22.984Z,28.10
2019-04-07T08:41:48.439Z,26.42
2019-04-07T08:44:19.455Z,23.55
2019-04-07T08:46:50.833Z,19.40
2019-04-07T08:49:24.160Z,18.15
2019-04-07T08:51:56.097Z,20.25
2019-04-07T08:54:27.637Z,20.88
2019-04-07T08:56:59.182Z,19.05
2019-04-07T08:59:30.342Z,21.55
2019-04-07T09:02:01.961Z,19.12
2019-04-07T09:04:32.984Z,19.87
2019-04-07T09:07:05.202Z,22.37
2019-04-07T09:09:40.381Z,21.02
2019-04-07T09:12:10.375Z,18.25
2019-04-07T09:14:41.948Z,19.25
2019-04-07T09:17:14.912Z,19.70
2019-04-07T09:19:47.698Z,20.57
2019-04-07T09:22:29.718Z,18.80
2019-04-07T09:25:06.266Z,17.45
2019-04-07T09:27:46.039Z,15.25
2019-04-07T09:30:30.839Z,15.40
2019-04-07T09:33:03.449Z,15.60
2019-04-07T09:35:48.672Z,17.37
2019-04-07T09:38:24.963Z,14.55
2019-04-07T09:40:57.227Z,15.28
2019-04-07T09:43:33.467Z,14.87
2019-04-07T09:46:09.333Z,16.80
2019-04-07T09:48:56.670Z,17.98
2019-04-07T09:51:46.218Z,15.90
2019-04-07T09:54:37.871Z,17.00
2019-04-07T09:57:16.864Z,15.93
2019-04-07T09:59:52.491Z,15.32
2019-04-07T10:02:33.577Z,17.40
2019-04-07T10:05:21.576Z,17.15
2019-04-07T10:08:07.160Z,16.35
2019-04-07T10:10:56.047Z,17.12
2019-04-07T10:13:31.782Z,12.58
2019-04-07T10:16:10.502Z,17.32
2019-04-07T10:18:42.929Z,15.95
2019-04-07T10:21:19.622Z,15.95
2019-04-07T10:24:08.780Z,15.23
2019-04-07T10:26:57.688Z,12.95
2019-04-07T10:29:34.051Z,16.55
2019-04-07T10:32:15.782Z,15.83
2019-04-07T10:35:01.050Z,17.85
2019-04-07T10:37:34.427Z,20.20
2019-04-07T10:40:25.467Z,10.98
2019-04-07T10:43:00.943Z,15.80
2019-04-07T10:45:45.920Z,13.70
2019-04-07T10:48:24.289Z,14.68
2019-04-07T10:51:07.915Z,12.68
2019-04-07T10:53:51.456Z,12.07
2019-04-07T10:56:30.830Z,13.05
2019-04-07T10:59:05.531Z,13.32
2019-04-07T11:01:44.481Z,14.47
2019-04-07T11:04:19.765Z,13.38
2019-04-07T11:06:52.387Z,8.30
2019-04-07T11:09:28.381Z,13.48
2019-04-07T11:12:16.185Z,12.60
2019-04-07T11:15:07.143Z,16.32
2019-04-07T11:17:39.659Z,15.83
2019-04-07T11:20:13.235Z,14.03
2019-04-07T11:23:04.407Z,16.40
2019-04-07T11:25:41.216Z,16.12
2019-04-07T11:28:29.166Z,16.17
2019-04-07T11:31:05.676Z,15.95
2019-04-07T11:33:50.504Z,13.22
2019-04-07T11:36:38.573Z,14.07
2019-04-07T11:39:14.060Z,16.57
2019-04-07T11:41:55.789Z,15.50
2019-04-07T11:44:31.277Z,14.63
2019-04-07T11:47:06.883Z,11.48
2019-04-07T11:49:58.194Z,14.28
2019-04-07T11:52:31.009Z,14.90
2019-04-07T11:55:03.575Z,14.10
2019-04-07T11:57:36.158Z,13.98
2019-04-07T12:00:26.967Z,13.18
2019-04-07T12:03:03.968Z,14.07
2019-04-07T12:05:52.576Z,14.13
2019-04-07T12:08:35.081Z,14.03
2019-04-07T12:11:14.867Z,11.33
2019-04-07T12:14:00.847Z,12.73
2019-04-07T12:16:38.016Z,14.07
2019-04-07T12:19:14.453Z,12.78
2019-04-07T12:21:53.232Z,14.03
2019-04-07T12:24:42.217Z,14.33
2019-04-07T12:27:21.676Z,12.58
2019-04-07T12:29:55.040Z,12.78
2019-04-07T12:32:27.600Z,11.83
2019-04-07T12:35:04.230Z,11.85
2019-04-07T12:37:48.909Z,12.58
2019-04-07T12:40:22.899Z,8.30
2019-04-07T12:42:59.240Z,11.73
2019-04-07T12:45:31.971Z,15.48
2019-04-07T12:48:06.305Z,16.75
2019-04-07T12:50:39.784Z,13.38
2019-04-07T12:53:25.149Z,12.98
2019-04-07T12:56:13.395Z,16.55
2019-04-07T12:59:02.279Z,14.65
2019-04-07T13:01:34.863Z,15.60
2019-04-07T13:04:26.444Z,14.30
2019-04-07T13:07:08.941Z,15.63
2019-04-07T13:10:00.295Z,16.87
2019-04-07T13:12:30.949Z,16.10
2019-04-07T13:15:08.541Z,15.95
2019-04-07T13:17:43.496Z,17.12
2019-04-07T13:20:32.174Z,15.35
2019-04-07T13:23:23.830Z,18.82
2019-04-07T13:26:03.386Z,17.55
2019-04-07T13:28:39.080Z,20.25
2019-04-07T13:31:27.585Z,17.27
2019-04-07T13:34:01.936Z,21.05
2019-04-07T13:36:53.296Z,16.20
2019-04-07T13:39:45.228Z,19.30
2019-04-07T13:42:23.042Z,22.55
2019-04-07T13:45:11.835Z,19.90
2019-04-07T13:47:57.731Z,22.90
2019-04-07T13:50:46.917Z,20.70
2019-04-07T13:53:36.713Z,19.80
2019-04-07T13:56:17.618Z,18.70
2019-04-07T13:58:53.365Z,18.77
2019-04-07T14:01:26.769Z,18.98
2019-04-07T14:04:00.093Z,16.12
2019-04-07T14:06:36.209Z,17.37
2019-04-07T14:09:21.162Z,19.02
2019-04-07T14:12:10.479Z,19.40
2019-04-07T14:14:57.942Z,20.17
2019-04-07T14:17:30.850Z,20.10
2019-04-07T14:20:16.129Z,25.65
2019-04-07T14:22:48.774Z,20.88
2019-04-07T14:25:41.872Z,24.52
2019-04-07T14:28:14.361Z,22.27
2019-04-07T14:30:53.335Z,28.05
2019-04-07T14:33:30.710Z,28.05
2019-04-07T14:36:07.325Z,30.68
2019-04-07T14:38:56.324Z,22.62
2019-04-07T14:41:43.967Z,26.07
2019-04-07T14:44:16.646Z,25.35
2019-04-07T14:47:04.103Z,25.30
2019-04-07T14:49:39.408Z,23.27
2019-04-07T14:52:11.963Z,24.30
2019-04-07T14:55:01.449Z,24.72
2019-04-07T14:57:41.530Z,28.25
2019-04-07T15:00:26.948Z,24.92
2019-04-07T15:02:57.909Z,24.50
2019-04-07T15:05:34.135Z,26.90
2019-04-07T15:08:16.308Z,39.98
2019-04-07T15:10:50.094Z,27.02
2019-04-07T15:13:25.765Z,37.55
2019-04-07T15:16:00.587Z,33.75
2019-04-07T15:18:32.026Z,27.75
2019-04-07T15:21:04.625Z,27.00
2019-04-07T15:23:35.700Z,41.60
2019-04-07T15:26:06.771Z,27.17
2019-04-07T15:28:38.446Z,25.37
2019-04-07T15:31:10.562Z,27.07
2019-04-07T15:33:42.384Z,31.42
2019-04-07T15:36:17.378Z,53.25
2019-04-07T15:38:46.410Z,49.18
2019-04-07T15:41:19.053Z,29.70
2019-04-07T15:43:50.218Z,32.60
2019-04-07T15:46:22.514Z,25.35
2019-04-07T15:48:55.736Z,30.52
2019-04-07T15:51:26.408Z,30.85
2019-04-07T15:53:57.422Z,30.80
2019-04-07T15:56:28.462Z,34.65
2019-04-07T15:59:01.994Z,38.00
2019-04-07T16:01:33.738Z,29.65
2019-04-07T16:04:14.741Z,30.15
2019-04-07T16:06:48.130Z,34.90
2019-04-07T16:09:33.271Z,29.82
2019-04-07T16:12:14.530Z,34.00
2019-04-07T16:14:48.039Z,34.35
2019-04-07T16:17:21.106Z,37.70
2019-04-07T16:19:54.441Z,33.75
2019-04-07T16:22:25.690Z,39.42
2019-04-07T16:24:57.286Z,33.80
2019-04-07T16:27:28.333Z,39.65
2019-04-07T16:29:59.233Z,32.30
2019-04-07T16:32:31.011Z,36.13
2019-04-07T16:35:02.045Z,37.95
2019-04-07T16:37:33.591Z,35.68
2019-04-07T16:40:10.416Z,29.65
2019-04-07T16:42:39.341Z,29.27
2019-04-07T16:45:13.750Z,32.78
2019-04-07T16:47:44.018Z,36.77
2019-04-07T16:50:18.110Z,32.63
2019-04-07T16:52:48.418Z,32.60
2019-04-07T16:55:34.880Z,40.33
2019-04-07T16:58:06.692Z,31.65
2019-04-07T17:00:38.399Z,31.05
2019-04-07T17:03:10.045Z,30.07
2019-04-07T17:05:41.193Z,31.40
2019-04-07T17:08:12.849Z,32.07
2019-04-07T17:10:43.971Z,32.83
2019-04-07T17:13:20.539Z,32.33
2019-04-07T17:15:48.065Z,41.03
2019-04-07T17:18:41.105Z,36.83
2019-04-07T17:21:16.551Z,42.90
2019-04-07T17:23:53.165Z,71.80
2019-04-07T17:26:23.533Z,60.27
2019-04-07T17:28:56.714Z,56.90
2019-04-07T17:31:28.078Z,57.50
2019-04-07T17:34:03.950Z,82.47
2019-04-07T17:36:34.345Z,114.73
2019-04-07T17:39:22.808Z,55.33
2019-04-07T17:41:55.303Z,50.78
2019-04-07T17:44:28.624Z,52.57
2019-04-07T17:47:13.711Z,54.07
2019-04-07T17:50:05.568Z,61.50
2019-04-07T17:52:41.662Z,51.37
2019-04-07T17:55:18.736Z,50.80
2019-04-07T17:57:57.588Z,49.77
2019-04-07T18:00:36.307Z,49.30
2019-04-07T18:03:11.954Z,52.77
2019-04-07T18:05:46.099Z,50.77
2019-04-07T18:08:28.318Z,136.23
2019-04-07T18:11:01.064Z,58.37
2019-04-07T18:13:45.025Z,53.63
2019-04-07T18:16:15.063Z,56.63
2019-04-07T18:18:47.681Z,54.63
2019-04-07T18:21:21.134Z,53.93
2019-04-07T18:24:01.376Z,47.90
2019-04-07T18:26:40.484Z,43.53
2019-04-07T18:29:14.917Z,47.73
2019-04-07T18:31:47.535Z,47.63
2019-04-07T18:34:27.465Z,48.60
2019-04-07T18:37:18.760Z,49.83
2019-04-07T18:40:03.399Z,51.37
2019-04-07T18:42:54.368Z,54.10
2019-04-07T18:45:32.753Z,67.93
2019-04-07T18:48:22.755Z,76.17
2019-04-07T18:51:13.252Z,81.90
2019-04-07T18:54:04.170Z,106.93
2019-04-07T18:56:41.682Z,102.87
2019-04-07T18:59:23.486Z,94.97
2019-04-07T19:02:14.872Z,122.63
2019-04-07T19:04:51.224Z,150.17
2019-04-07T19:07:27.282Z,143.00
2019-04-07T19:10:08.698Z,137.13
2019-04-07T19:12:41.028Z,133.37
2019-04-07T19:15:13.978Z,111.77
2019-04-07T19:18:09.882Z,110.83
2019-04-07T19:21:14.045Z,114.87
2019-04-07T19:24:10.684Z,103.53
2019-04-07T19:26:54.644Z,104.13
2019-04-07T19:29:46.219Z,102.90
2019-04-07T19:32:20.859Z,94.63
2019-04-07T19:35:11.511Z,89.73
2019-04-07T19:37:50.667Z,78.70
2019-04-07T19:40:32.369Z,72.17
2019-04-07T19:43:18.062Z,67.23
2019-04-07T19:45:55.145Z,65.37
2019-04-07T19:48:31.088Z,67.83
2019-04-07T19:51:03.843Z,72.77
2019-04-07T19:53:55.706Z,74.97
2019-04-07T19:56:35.144Z,66.20
2019-04-07T19:59:14.574Z,71.63
2019-04-07T20:01:50.362Z,67.03
2019-04-07T20:04:32.733Z,61.60
2019-04-07T20:07:17.948Z,65.33
2019-04-07T20:10:03.101Z,71.47
2019-04-07T20:12:47.932Z,70.43
2019-04-07T20:15:43.140Z,60.73
2019-04-07T20:18:34.110Z,56.77
2019-04-07T20:21:08.506Z,53.33
2019-04-07T20:23:43.994Z,55.60
2019-04-07T20:26:22.092Z,57.80
2019-04-07T20:29:06.541Z,60.07
2019-04-07T20:31:40.813Z,64.27
2019-04-07T20:34:19.319Z,85.93
2019-04-07T20:37:08.147Z,80.07
2019-04-07T20:39:41.254Z,80.00
2019-04-07T20:42:31.089Z,80.70
2019-04-07T20:45:14.216Z,79.13
2019-04-07T20:47:44.657Z,73.67
2019-04-07T20:50:20.188Z,69.70
2019-04-07T20:53:10.083Z,63.93
2019-04-07T20:55:45.266Z,66.17
2019-04-07T20:58:48.725Z,65.07
2019-04-07T21:01:44.559Z,63.70
2019-04-07T21:07:35.424Z,49.77
2019-04-07T21:10:11.188Z,49.87
2019-04-07T21:12:45.505Z,52.10
2019-04-07T21:15:30.379Z,52.40
2019-04-07T21:18:15.978Z,56.43
2019-04-07T21:21:11.937Z,57.27
2019-04-07T21:23:59.568Z,54.40
2019-04-07T21:26:48.362Z,53.23
2019-04-07T21:29:28.104Z,51.97
2019-04-07T21:32:18.983Z,50.17
2019-04-07T21:35:08.683Z,51.90
2019-04-07T21:37:51.909Z,54.33
2019-04-07T21:40:39.563Z,54.90
2019-04-07T21:43:20.083Z,54.83
2019-04-07T21:45:54.448Z,52.23
2019-04-07T21:48:44.232Z,52.30
2019-04-07T21:51:33.395Z,51.83
2019-04-07T21:54:07.722Z,52.60
2019-04-07T21:56:46.123Z,55.77
2019-04-07T21:59:37.441Z,54.10
2019-04-07T22:02:19.453Z,54.23
2019-04-07T22:05:18.094Z,55.70
2019-04-07T22:07:53.822Z,59.47
2019-04-07T22:10:25.682Z,57.07
2019-04-07T22:13:00.702Z,57.73
2019-04-07T22:15:42.124Z,58.30
2019-04-07T22:18:06.290Z,57.07
2019-04-07T22:20:34.972Z,58.37
2019-04-07T22:23:09.304Z,57.77
2019-04-07T22:25:52.341Z,59.60
2019-04-07T22:28:27.650Z,56.27
2019-04-07T22:30:57.275Z,56.73
2019-04-07T22:33:30.901Z,55.70
2019-04-07T22:36:01.771Z,55.63
2019-04-07T22:38:33.639Z,54.30
2019-04-07T22:41:06.701Z,55.60
2019-04-07T22:43:37.499Z,55.73
2019-04-07T22:46:17.555Z,52.77
2019-04-07T22:48:41.798Z,55.57
2019-04-07T22:51:13.782Z,56.60
2019-04-07T22:53:45.549Z,53.80
2019-04-07T22:56:18.102Z,55.97
2019-04-07T22:58:52.004Z,56.43
2019-04-07T23:01:23.126Z,59.93
2019-04-07T23:03:54.779Z,60.87
2019-04-07T23:06:26.630Z,58.17
2019-04-07T23:08:57.634Z,57.57
2019-04-07T23:11:29.970Z,55.73
2019-04-07T23:14:01.125Z,53.50
2019-04-07T23:16:36.003Z,55.90
2019-04-07T23:19:07.566Z,54.87
2019-04-07T23:21:39.705Z,51.57
2019-04-07T23:24:11.480Z,51.23
2019-04-07T23:26:42.622Z,52.87
2019-04-07T23:29:22.167Z,54.17
2019-04-07T23:31:57.633Z,49.33
2019-04-07T23:34:36.670Z,50.50
2019-04-07T23:37:12.359Z,50.60
2019-04-07T23:39:44.137Z,49.53
2019-04-07T23:42:15.743Z,48.60
2019-04-07T23:44:58.656Z,48.17
2019-04-07T23:47:37.111Z,47.97
2019-04-07T23:50:09.141Z,49.73
2019-04-07T23:52:41.151Z,48.20
2019-04-07T23:55:12.912Z,48.00
2019-04-07T23:57:44.982Z,48.53
